createdAt,value
2022-12-09T00:06:59.356Z,17.20
2022-12-09T00:14:34.711Z,15.77
2022-12-09T00:22:08.673Z,16.38
2022-12-09T00:29:44.172Z,16.13
2022-12-09T00:37:18.603Z,17.08
2022-12-09T00:44:54.086Z,17.65
2022-12-09T00:52:28.382Z,17.73
2022-12-09T01:00:04.061Z,17.52
2022-12-09T01:07:38.660Z,15.98
2022-12-09T01:15:14.555Z,15.70
2022-12-09T01:22:48.481Z,16.73
2022-12-09T01:30:23.981Z,16.33
2022-12-09T01:37:58.004Z,15.77
2022-12-09T01:53:17.410Z,15.63
2022-12-09T02:00:52.758Z,14.75
2022-12-09T02:08:26.627Z,15.13
2022-12-09T02:16:06.121Z,15.15
2022-12-09T02:23:43.577Z,14.75
2022-12-09T02:31:33.366Z,14.15
2022-12-09T02:39:11.198Z,14.73
2022-12-09T02:46:46.606Z,14.05
2022-12-09T02:54:24.560Z,14.98
2022-12-09T03:02:05.637Z,16.02
2022-12-09T03:09:46.449Z,14.95
2022-12-09T03:17:24.294Z,14.48
2022-12-09T03:25:06.993Z,13.77
2022-12-09T03:32:43.219Z,12.60
2022-12-09T03:40:24.314Z,13.98
2022-12-09T03:47:58.684Z,12.73
2022-12-09T03:55:40.996Z,12.60
2022-12-09T04:03:16.209Z,11.85
2022-12-09T04:10:51.482Z,12.38
2022-12-09T04:18:25.582Z,11.48
2022-12-09T04:26:01.251Z,9.05
2022-12-09T04:33:35.078Z,9.75
2022-12-09T04:41:11.092Z,11.10
2022-12-09T04:48:45.237Z,10.48
2022-12-09T05:03:56.371Z,9.60
2022-12-09T05:11:32.186Z,8.82
2022-12-09T05:19:06.338Z,9.85
2022-12-09T05:34:15.958Z,9.10
2022-12-09T05:41:51.712Z,10.48
2022-12-09T05:49:26.277Z,10.38
2022-12-09T05:57:05.288Z,9.48
2022-12-09T06:04:39.527Z,10.20
2022-12-09T06:12:15.794Z,10.23
2022-12-09T06:19:50.077Z,10.90
2022-12-09T06:27:25.863Z,11.48
2022-12-09T06:35:00.419Z,9.75
2022-12-09T06:42:36.306Z,10.43
2022-12-09T06:50:11.123Z,10.50
2022-12-09T06:57:46.859Z,9.88
2022-12-09T07:05:20.792Z,10.70
2022-12-09T07:20:30.571Z,11.13
2022-12-09T07:28:06.751Z,11.38
2022-12-09T07:35:40.896Z,10.75
2022-12-09T07:43:16.838Z,12.15
2022-12-09T07:50:50.844Z,10.32
2022-12-09T08:06:00.684Z,9.23
2022-12-09T08:13:37.274Z,9.20
2022-12-09T08:21:14.186Z,9.93
2022-12-09T08:28:50.253Z,7.68
2022-12-09T08:36:26.408Z,8.52
2022-12-09T08:51:54.839Z,9.73
2022-12-09T08:59:30.882Z,9.57
2022-12-09T09:07:05.544Z,9.23
2022-12-09T09:14:41.207Z,10.13
2022-12-09T09:22:15.202Z,10.63
2022-12-09T09:29:50.972Z,10.93
2022-12-09T09:37:25.209Z,11.82
2022-12-09T09:45:04.738Z,10.75
2022-12-09T09:52:42.774Z,10.45
2022-12-09T10:00:27.129Z,10.15
2022-12-09T10:08:17.409Z,8.65
2022-12-09T10:16:02.743Z,8.00
2022-12-09T10:23:37.085Z,10.52
2022-12-09T10:31:14.374Z,8.50
2022-12-09T10:38:48.883Z,9.50
2022-12-09T10:46:25.559Z,8.45
2022-12-09T10:54:02.861Z,7.68
2022-12-09T11:01:49.941Z,8.45
2022-12-09T11:09:28.860Z,7.93
2022-12-09T11:17:17.067Z,8.80
2022-12-09T11:24:54.824Z,8.02
2022-12-09T11:32:32.393Z,8.82
2022-12-09T11:40:07.730Z,8.50
2022-12-09T11:55:48.451Z,8.73
2022-12-09T12:03:31.481Z,10.52
2022-12-09T12:11:14.824Z,9.18
2022-12-09T12:18:57.007Z,9.43
2022-12-09T12:26:40.260Z,10.73
2022-12-09T12:34:26.530Z,10.68
2022-12-09T12:42:08.933Z,10.20
2022-12-09T12:50:04.301Z,9.90
2022-12-09T12:57:46.098Z,10.73
2022-12-09T13:05:24.115Z,9.48
2022-12-09T13:13:01.681Z,11.75
2022-12-09T13:20:47.519Z,13.30
2022-12-09T13:28:28.737Z,13.02
2022-12-09T13:36:10.229Z,12.95
2022-12-09T13:43:44.541Z,13.48
2022-12-09T13:51:20.576Z,14.73
2022-12-09T13:59:30.020Z,17.70
2022-12-09T14:07:17.889Z,16.63
2022-12-09T14:14:53.005Z,16.75
2022-12-09T14:22:40.231Z,15.98
2022-12-09T14:30:48.269Z,18.33
2022-12-09T14:38:28.703Z,16.02
2022-12-09T14:46:04.401Z,14.18
2022-12-09T14:53:39.783Z,14.18
2022-12-09T15:01:13.838Z,16.13
2022-12-09T15:16:27.207Z,12.60
2022-12-09T15:24:02.741Z,13.50
2022-12-09T15:31:36.937Z,13.82
2022-12-09T15:39:19.894Z,12.05
2022-12-09T15:46:57.580Z,13.98
2022-12-09T15:54:38.825Z,13.50
2022-12-09T16:02:21.241Z,15.45
2022-12-09T16:10:07.021Z,12.40
2022-12-09T16:17:53.780Z,13.15
2022-12-09T16:25:35.719Z,14.43
2022-12-09T16:33:17.703Z,12.65
2022-12-09T16:41:14.616Z,12.25
2022-12-09T16:48:50.058Z,13.50
2022-12-09T16:56:27.337Z,13.07
2022-12-09T17:04:05.167Z,13.10
2022-12-09T17:11:47.033Z,14.25
2022-12-09T17:19:22.847Z,13.50
2022-12-09T17:27:00.431Z,15.05
2022-12-09T17:34:34.252Z,13.23
2022-12-09T17:42:09.613Z,12.27
2022-12-09T17:49:43.454Z,12.80
